sensor_id;sensor_type;location;lat;lon;timestamp;temperature;humidity
15596;DHT22;7898;48.658;9.068;2022-11-21T00:01:24;4.40;99.90
15596;DHT22;7898;48.658;9.068;2022-11-21T00:03:56;4.30;99.90
15596;DHT22;7898;48.658;9.068;2022-11-21T00:06:25;4.20;99.90
15596;DHT22;7898;48.658;9.068;2022-11-21T00:08:58;4.20;99.90
15596;DHT22;7898;48.658;9.068;2022-11-21T00:11:26;4.20;99.90
15596;DHT22;7898;48.658;9.068;2022-11-21T00:14:01;4.20;99.90
15596;DHT22;7898;48.658;9.068;2022-11-21T00:16:31;4.20;99.90
15596;DHT22;7898;48.658;9.068;2022-11-21T00:19:01;4.20;99.90
15596;DHT22;7898;48.658;9.068;2022-11-21T00:21:56;4.10;99.90
15596;DHT22;7898;48.658;9.068;2022-11-21T00:24:25;4.10;99.90
15596;DHT22;7898;48.658;9.068;2022-11-21T00:27:10;3.90;99.90
15596;DHT22;7898;48.658;9.068;2022-11-21T00:29:44;3.90;99.90
15596;DHT22;7898;48.658;9.068;2022-11-21T00:32:14;3.90;99.90
15596;DHT22;7898;48.658;9.068;2022-11-21T00:34:51;3.80;99.90
15596;DHT22;7898;48.658;9.068;2022-11-21T00:37:28;3.80;99.90
15596;DHT22;7898;48.658;9.068;2022-11-21T00:39:56;3.80;99.90
15596;DHT22;7898;48.658;9.068;2022-11-21T00:42:25;3.70;99.90
15596;DHT22;7898;48.658;9.068;2022-11-21T00:44:53;3.80;99.90
15596;DHT22;7898;48.658;9.068;2022-11-21T00:47:22;3.70;99.90
15596;DHT22;7898;48.658;9.068;2022-11-21T00:49:54;3.60;99.90
15596;DHT22;7898;48.658;9.068;2022-11-21T00:52:42;3.60;99.90
15596;DHT22;7898;48.658;9.068;2022-11-21T00:55:18;3.60;99.90
15596;DHT22;7898;48.658;9.068;2022-11-21T00:57:48;3.60;99.90
15596;DHT22;7898;48.658;9.068;2022-11-21T01:00:20;3.50;99.90
15596;DHT22;7898;48.658;9.068;2022-11-21T01:02:50;3.50;99.90
15596;DHT22;7898;48.658;9.068;2022-11-21T01:05:18;3.60;99.90
15596;DHT22;7898;48.658;9.068;2022-11-21T01:07:49;3.70;99.90
15596;DHT22;7898;48.658;9.068;2022-11-21T01:10:29;3.70;99.90
15596;DHT22;7898;48.658;9.068;2022-11-21T01:12:59;3.70;99.90
15596;DHT22;7898;48.658;9.068;2022-11-21T01:15:35;3.70;99.90
15596;DHT22;7898;48.658;9.068;2022-11-21T01:18:04;3.80;99.90
15596;DHT22;7898;48.658;9.068;2022-11-21T01:20:40;3.80;99.90
15596;DHT22;7898;48.658;9.068;2022-11-21T01:23:16;3.80;99.90
15596;DHT22;7898;48.658;9.068;2022-11-21T01:26:02;3.90;99.90
15596;DHT22;7898;48.658;9.068;2022-11-21T01:28:32;3.90;99.90
15596;DHT22;7898;48.658;9.068;2022-11-21T01:31:06;4.00;99.90
15596;DHT22;7898;48.658;9.068;2022-11-21T01:33:37;4.10;99.90
15596;DHT22;7898;48.658;9.068;2022-11-21T01:36:10;4.10;99.90
15596;DHT22;7898;48.658;9.068;2022-11-21T01:38:44;4.10;99.90
15596;DHT22;7898;48.658;9.068;2022-11-21T01:41:22;4.10;99.90
15596;DHT22;7898;48.658;9.068;2022-11-21T01:43:57;4.10;99.90
15596;DHT22;7898;48.658;9.068;2022-11-21T01:46:24;4.10;99.90
15596;DHT22;7898;48.658;9.068;2022-11-21T01:49:04;4.10;99.90
15596;DHT22;7898;48.658;9.068;2022-11-21T01:51:37;4.10;99.90
15596;DHT22;7898;48.658;9.068;2022-11-21T01:54:15;4.10;99.90
15596;DHT22;7898;48.658;9.068;2022-11-21T01:56:58;4.10;99.90
15596;DHT22;7898;48.658;9.068;2022-11-21T01:59:34;4.10;99.90
15596;DHT22;7898;48.658;9.068;2022-11-21T02:02:14;4.10;99.90
15596;DHT22;7898;48.658;9.068;2022-11-21T02:04:43;4.10;99.90
15596;DHT22;7898;48.658;9.068;2022-11-21T02:07:16;4.10;99.90
15596;DHT22;7898;48.658;9.068;2022-11-21T02:09:55;4.10;99.90
15596;DHT22;7898;48.658;9.068;2022-11-21T02:12:34;4.20;99.90
15596;DHT22;7898;48.658;9.068;2022-11-21T02:15:15;4.10;99.90
15596;DHT22;7898;48.658;9.068;2022-11-21T02:17:45;4.00;99.90
15596;DHT22;7898;48.658;9.068;2022-11-21T02:20:20;4.00;99.90
15596;DHT22;7898;48.658;9.068;2022-11-21T02:22:57;4.00;99.90
15596;DHT22;7898;48.658;9.068;2022-11-21T02:25:41;4.00;99.90
15596;DHT22;7898;48.658;9.068;2022-11-21T02:28:11;4.00;99.90
15596;DHT22;7898;48.658;9.068;2022-11-21T02:30:51;4.00;99.90
15596;DHT22;7898;48.658;9.068;2022-11-21T02:33:23;4.00;99.90
15596;DHT22;7898;48.658;9.068;2022-11-21T02:35:59;4.10;99.90
15596;DHT22;7898;48.658;9.068;2022-11-21T02:38:36;4.10;99.90
15596;DHT22;7898;48.658;9.068;2022-11-21T02:41:16;4.10;99.90
15596;DHT22;7898;48.658;9.068;2022-11-21T02:44:11;4.10;99.90
15596;DHT22;7898;48.658;9.068;2022-11-21T02:46:49;4.10;99.90
15596;DHT22;7898;48.658;9.068;2022-11-21T02:49:23;4.20;99.90
15596;DHT22;7898;48.658;9.068;2022-11-21T02:51:53;4.10;99.90
15596;DHT22;7898;48.658;9.068;2022-11-21T02:54:29;4.10;99.90
15596;DHT22;7898;48.658;9.068;2022-11-21T02:57:03;4.10;99.90
15596;DHT22;7898;48.658;9.068;2022-11-21T02:59:34;4.00;99.90
15596;DHT22;7898;48.658;9.068;2022-11-21T03:02:12;5.00;99.90
15596;DHT22;7898;48.658;9.068;2022-11-21T03:04:57;3.90;99.90
15596;DHT22;7898;48.658;9.068;2022-11-21T03:07:23;3.90;99.90
15596;DHT22;7898;48.658;9.068;2022-11-21T03:09:58;3.90;99.90
15596;DHT22;7898;48.658;9.068;2022-11-21T03:12:29;3.90;99.90
15596;DHT22;7898;48.658;9.068;2022-11-21T03:15:02;3.90;99.90
15596;DHT22;7898;48.658;9.068;2022-11-21T03:17:32;3.90;99.90
15596;DHT22;7898;48.658;9.068;2022-11-21T03:20:05;3.80;99.90
15596;DHT22;7898;48.658;9.068;2022-11-21T03:22:36;3.80;99.90
15596;DHT22;7898;48.658;9.068;2022-11-21T03:25:08;3.80;99.90
15596;DHT22;7898;48.658;9.068;2022-11-21T03:27:38;3.80;99.90
15596;DHT22;7898;48.658;9.068;2022-11-21T03:30:13;4.50;99.90
15596;DHT22;7898;48.658;9.068;2022-11-21T03:32:44;3.80;99.90
15596;DHT22;7898;48.658;9.068;2022-11-21T03:35:11;3.90;99.90
15596;DHT22;7898;48.658;9.068;2022-11-21T03:37:38;3.80;99.90
15596;DHT22;7898;48.658;9.068;2022-11-21T03:40:09;3.80;99.90
15596;DHT22;7898;48.658;9.068;2022-11-21T03:42:48;3.80;99.90
15596;DHT22;7898;48.658;9.068;2022-11-21T03:45:22;3.80;99.90
15596;DHT22;7898;48.658;9.068;2022-11-21T03:48:07;3.80;99.90
15596;DHT22;7898;48.658;9.068;2022-11-21T03:50:44;3.90;99.90
15596;DHT22;7898;48.658;9.068;2022-11-21T03:53:18;3.90;99.90
15596;DHT22;7898;48.658;9.068;2022-11-21T03:55:47;3.90;99.90
15596;DHT22;7898;48.658;9.068;2022-11-21T03:58:16;4.00;99.90
15596;DHT22;7898;48.658;9.068;2022-11-21T04:00:49;4.00;99.90
15596;DHT22;7898;48.658;9.068;2022-11-21T04:03:19;4.10;99.90
15596;DHT22;7898;48.658;9.068;2022-11-21T04:05:48;4.10;99.90
15596;DHT22;7898;48.658;9.068;2022-11-21T04:08:31;4.00;99.90
15596;DHT22;7898;48.658;9.068;2022-11-21T04:11:03;4.00;99.90
15596;DHT22;7898;48.658;9.068;2022-11-21T04:13:47;4.10;99.90
15596;DHT22;7898;48.658;9.068;2022-11-21T04:16:16;4.10;99.90
15596;DHT22;7898;48.658;9.068;2022-11-21T04:18:45;4.10;99.90
15596;DHT22;7898;48.658;9.068;2022-11-21T04:21:14;4.10;99.90
15596;DHT22;7898;48.658;9.068;2022-11-21T04:23:50;4.20;99.90
15596;DHT22;7898;48.658;9.068;2022-11-21T04:26:32;4.20;99.90
15596;DHT22;7898;48.658;9.068;2022-11-21T04:29:06;4.20;99.90
15596;DHT22;7898;48.658;9.068;2022-11-21T04:34:28;4.20;99.90
15596;DHT22;7898;48.658;9.068;2022-11-21T04:36:55;4.30;99.90
15596;DHT22;7898;48.658;9.068;2022-11-21T04:39:26;4.30;99.90
15596;DHT22;7898;48.658;9.068;2022-11-21T04:41:59;4.30;99.90
15596;DHT22;7898;48.658;9.068;2022-11-21T04:44:34;4.20;99.90
15596;DHT22;7898;48.658;9.068;2022-11-21T04:47:04;4.20;99.90
15596;DHT22;7898;48.658;9.068;2022-11-21T04:49:31;4.30;99.90
15596;DHT22;7898;48.658;9.068;2022-11-21T04:52:00;4.20;99.90
15596;DHT22;7898;48.658;9.068;2022-11-21T04:54:35;4.50;99.90
15596;DHT22;7898;48.658;9.068;2022-11-21T04:57:04;4.10;99.90
15596;DHT22;7898;48.658;9.068;2022-11-21T04:59:36;4.20;99.90
15596;DHT22;7898;48.658;9.068;2022-11-21T05:02:10;4.20;99.90
15596;DHT22;7898;48.658;9.068;2022-11-21T05:04:39;4.20;99.90
15596;DHT22;7898;48.658;9.068;2022-11-21T05:07:13;4.10;99.90
15596;DHT22;7898;48.658;9.068;2022-11-21T05:09:49;4.10;99.90
15596;DHT22;7898;48.658;9.068;2022-11-21T05:12:23;4.20;99.90
15596;DHT22;7898;48.658;9.068;2022-11-21T05:15:11;4.10;99.90
15596;DHT22;7898;48.658;9.068;2022-11-21T05:17:38;4.10;99.90
15596;DHT22;7898;48.658;9.068;2022-11-21T05:20:11;4.10;99.90
15596;DHT22;7898;48.658;9.068;2022-11-21T05:22:43;4.10;99.90
15596;DHT22;7898;48.658;9.068;2022-11-21T05:25:14;4.20;99.90
15596;DHT22;7898;48.658;9.068;2022-11-21T05:27:43;4.10;99.90
15596;DHT22;7898;48.658;9.068;2022-11-21T05:30:17;4.10;99.90
15596;DHT22;7898;48.658;9.068;2022-11-21T05:32:44;4.10;99.90
15596;DHT22;7898;48.658;9.068;2022-11-21T05:35:10;4.10;99.90
15596;DHT22;7898;48.658;9.068;2022-11-21T05:37:37;4.10;99.90
15596;DHT22;7898;48.658;9.068;2022-11-21T05:40:08;4.20;99.90
15596;DHT22;7898;48.658;9.068;2022-11-21T05:42:38;4.20;99.90
15596;DHT22;7898;48.658;9.068;2022-11-21T05:45:24;4.20;99.90
15596;DHT22;7898;48.658;9.068;2022-11-21T05:47:53;4.10;99.90
15596;DHT22;7898;48.658;9.068;2022-11-21T05:50:21;4.00;99.90
15596;DHT22;7898;48.658;9.068;2022-11-21T05:52:52;3.90;99.90
15596;DHT22;7898;48.658;9.068;2022-11-21T05:55:23;3.90;99.90
15596;DHT22;7898;48.658;9.068;2022-11-21T05:58:02;3.90;99.90
15596;DHT22;7898;48.658;9.068;2022-11-21T06:00:32;3.90;99.90
15596;DHT22;7898;48.658;9.068;2022-11-21T06:03:08;3.90;99.90
15596;DHT22;7898;48.658;9.068;2022-11-21T06:05:58;4.00;99.90
15596;DHT22;7898;48.658;9.068;2022-11-21T06:08:25;4.00;99.90
15596;DHT22;7898;48.658;9.068;2022-11-21T06:10:54;4.00;99.90
15596;DHT22;7898;48.658;9.068;2022-11-21T06:13:21;4.00;99.90
15596;DHT22;7898;48.658;9.068;2022-11-21T06:15:58;3.90;99.90
15596;DHT22;7898;48.658;9.068;2022-11-21T06:18:33;3.90;99.90
15596;DHT22;7898;48.658;9.068;2022-11-21T06:21:04;3.80;99.90
15596;DHT22;7898;48.658;9.068;2022-11-21T06:23:32;3.80;99.90
15596;DHT22;7898;48.658;9.068;2022-11-21T06:26:03;3.70;99.90
15596;DHT22;7898;48.658;9.068;2022-11-21T06:28:32;3.70;99.90
15596;DHT22;7898;48.658;9.068;2022-11-21T06:31:16;3.70;99.90
15596;DHT22;7898;48.658;9.068;2022-11-21T06:33:45;3.60;99.90
15596;DHT22;7898;48.658;9.068;2022-11-21T06:36:17;3.50;99.90
15596;DHT22;7898;48.658;9.068;2022-11-21T06:38:44;3.40;99.90
15596;DHT22;7898;48.658;9.068;2022-11-21T06:41:23;3.40;99.90
15596;DHT22;7898;48.658;9.068;2022-11-21T06:43:54;3.50;99.90
15596;DHT22;7898;48.658;9.068;2022-11-21T06:46:22;3.30;99.90
15596;DHT22;7898;48.658;9.068;2022-11-21T06:48:52;3.30;99.90
15596;DHT22;7898;48.658;9.068;2022-11-21T06:51:23;3.30;99.90
15596;DHT22;7898;48.658;9.068;2022-11-21T06:53:59;3.30;99.90
15596;DHT22;7898;48.658;9.068;2022-11-21T06:56:28;3.20;99.90
15596;DHT22;7898;48.658;9.068;2022-11-21T06:58:58;3.10;99.90
15596;DHT22;7898;48.658;9.068;2022-11-21T07:01:31;3.10;99.90
15596;DHT22;7898;48.658;9.068;2022-11-21T07:03:58;3.10;99.90
15596;DHT22;7898;48.658;9.068;2022-11-21T07:06:24;3.00;99.90
15596;DHT22;7898;48.658;9.068;2022-11-21T07:08:54;3.10;99.90
15596;DHT22;7898;48.658;9.068;2022-11-21T07:11:21;3.00;99.90
15596;DHT22;7898;48.658;9.068;2022-11-21T07:14:02;2.90;99.90
15596;DHT22;7898;48.658;9.068;2022-11-21T07:16:34;2.90;99.90
15596;DHT22;7898;48.658;9.068;2022-11-21T07:19:10;2.90;99.90
15596;DHT22;7898;48.658;9.068;2022-11-21T07:21:37;3.20;99.90
15596;DHT22;7898;48.658;9.068;2022-11-21T07:24:04;3.30;99.90
15596;DHT22;7898;48.658;9.068;2022-11-21T07:26:34;3.80;99.90
15596;DHT22;7898;48.658;9.068;2022-11-21T07:29:08;4.30;99.90
15596;DHT22;7898;48.658;9.068;2022-11-21T07:31:36;5.00;99.90
15596;DHT22;7898;48.658;9.068;2022-11-21T07:34:03;5.70;99.90
15596;DHT22;7898;48.658;9.068;2022-11-21T07:36:32;6.20;99.90
15596;DHT22;7898;48.658;9.068;2022-11-21T07:39:00;6.80;99.90
15596;DHT22;7898;48.658;9.068;2022-11-21T07:41:36;7.50;99.90
15596;DHT22;7898;48.658;9.068;2022-11-21T07:44:04;8.10;99.90
15596;DHT22;7898;48.658;9.068;2022-11-21T07:46:31;8.50;99.90
15596;DHT22;7898;48.658;9.068;2022-11-21T07:48:59;8.90;99.90
15596;DHT22;7898;48.658;9.068;2022-11-21T07:51:30;8.90;99.90
15596;DHT22;7898;48.658;9.068;2022-11-21T07:54:05;8.70;99.90
15596;DHT22;7898;48.658;9.068;2022-11-21T07:56:33;8.60;99.90
15596;DHT22;7898;48.658;9.068;2022-11-21T07:59:12;8.50;99.90
15596;DHT22;7898;48.658;9.068;2022-11-21T08:01:43;8.50;99.90
15596;DHT22;7898;48.658;9.068;2022-11-21T08:04:17;8.70;99.90
15596;DHT22;7898;48.658;9.068;2022-11-21T08:06:47;8.80;99.90
15596;DHT22;7898;48.658;9.068;2022-11-21T08:09:21;9.20;99.90
15596;DHT22;7898;48.658;9.068;2022-11-21T08:11:47;9.70;99.90
15596;DHT22;7898;48.658;9.068;2022-11-21T08:14:28;10.20;99.90
15596;DHT22;7898;48.658;9.068;2022-11-21T08:16:58;10.70;99.90
15596;DHT22;7898;48.658;9.068;2022-11-21T08:19:29;11.10;99.90
15596;DHT22;7898;48.658;9.068;2022-11-21T08:21:59;11.60;99.90
15596;DHT22;7898;48.658;9.068;2022-11-21T08:24:28;11.60;99.90
15596;DHT22;7898;48.658;9.068;2022-11-21T08:26:58;11.70;99.90
15596;DHT22;7898;48.658;9.068;2022-11-21T08:29:24;11.50;99.90
15596;DHT22;7898;48.658;9.068;2022-11-21T08:31:54;11.00;99.90
15596;DHT22;7898;48.658;9.068;2022-11-21T08:34:24;10.20;99.90
15596;DHT22;7898;48.658;9.068;2022-11-21T08:36:52;9.90;99.90
15596;DHT22;7898;48.658;9.068;2022-11-21T08:39:24;10.00;99.90
15596;DHT22;7898;48.658;9.068;2022-11-21T08:41:55;10.50;99.90
15596;DHT22;7898;48.658;9.068;2022-11-21T08:44:33;10.70;99.90
15596;DHT22;7898;48.658;9.068;2022-11-21T08:47:13;11.40;99.90
15596;DHT22;7898;48.658;9.068;2022-11-21T08:49:41;11.60;99.90
15596;DHT22;7898;48.658;9.068;2022-11-21T08:52:09;11.90;99.90
15596;DHT22;7898;48.658;9.068;2022-11-21T08:54:39;12.30;99.90
15596;DHT22;7898;48.658;9.068;2022-11-21T08:57:07;12.40;99.90
15596;DHT22;7898;48.658;9.068;2022-11-21T08:59:41;12.30;99.90
15596;DHT22;7898;48.658;9.068;2022-11-21T09:02:10;12.50;99.90
15596;DHT22;7898;48.658;9.068;2022-11-21T09:04:37;12.50;99.90
15596;DHT22;7898;48.658;9.068;2022-11-21T09:07:11;12.50;99.90
15596;DHT22;7898;48.658;9.068;2022-11-21T09:09:43;12.90;99.90
15596;DHT22;7898;48.658;9.068;2022-11-21T09:12:11;13.20;99.90
15596;DHT22;7898;48.658;9.068;2022-11-21T09:14:51;13.30;99.90
15596;DHT22;7898;48.658;9.068;2022-11-21T09:17:36;13.10;99.90
15596;DHT22;7898;48.658;9.068;2022-11-21T09:20:20;13.00;99.90
15596;DHT22;7898;48.658;9.068;2022-11-21T09:23:05;12.70;99.90
15596;DHT22;7898;48.658;9.068;2022-11-21T09:25:35;12.60;99.90
15596;DHT22;7898;48.658;9.068;2022-11-21T09:28:05;12.60;99.90
15596;DHT22;7898;48.658;9.068;2022-11-21T09:30:35;12.70;99.90
15596;DHT22;7898;48.658;9.068;2022-11-21T09:33:10;12.40;99.90
15596;DHT22;7898;48.658;9.068;2022-11-21T09:35:42;11.70;99.90
15596;DHT22;7898;48.658;9.068;2022-11-21T09:38:18;10.80;99.90
15596;DHT22;7898;48.658;9.068;2022-11-21T09:41:01;10.00;99.90
15596;DHT22;7898;48.658;9.068;2022-11-21T09:44:02;9.10;99.90
15596;DHT22;7898;48.658;9.068;2022-11-21T09:46:42;8.30;99.90
15596;DHT22;7898;48.658;9.068;2022-11-21T09:49:23;8.20;99.90
15596;DHT22;7898;48.658;9.068;2022-11-21T09:51:55;8.30;99.90
15596;DHT22;7898;48.658;9.068;2022-11-21T09:54:33;8.60;99.90
15596;DHT22;7898;48.658;9.068;2022-11-21T09:57:16;9.00;99.90
15596;DHT22;7898;48.658;9.068;2022-11-21T09:59:49;9.30;99.90
15596;DHT22;7898;48.658;9.068;2022-11-21T10:02:20;9.70;99.90
15596;DHT22;7898;48.658;9.068;2022-11-21T10:04:57;10.10;99.90
15596;DHT22;7898;48.658;9.068;2022-11-21T10:07:37;10.30;99.90
15596;DHT22;7898;48.658;9.068;2022-11-21T10:10:20;10.50;99.90
15596;DHT22;7898;48.658;9.068;2022-11-21T10:13:15;10.90;99.90
15596;DHT22;7898;48.658;9.068;2022-11-21T10:15:55;11.30;99.90
15596;DHT22;7898;48.658;9.068;2022-11-21T10:18:46;11.60;99.90
15596;DHT22;7898;48.658;9.068;2022-11-21T10:21:46;11.70;99.90
15596;DHT22;7898;48.658;9.068;2022-11-21T10:24:39;11.80;99.90
15596;DHT22;7898;48.658;9.068;2022-11-21T10:27:27;11.60;99.90
15596;DHT22;7898;48.658;9.068;2022-11-21T10:30:14;11.40;99.90
15596;DHT22;7898;48.658;9.068;2022-11-21T10:32:48;11.00;99.90
15596;DHT22;7898;48.658;9.068;2022-11-21T10:35:22;10.80;99.90
15596;DHT22;7898;48.658;9.068;2022-11-21T10:37:58;10.40;99.90
15596;DHT22;7898;48.658;9.068;2022-11-21T10:40:34;10.40;99.90
15596;DHT22;7898;48.658;9.068;2022-11-21T10:43:26;10.50;99.90
15596;DHT22;7898;48.658;9.068;2022-11-21T10:46:14;10.60;99.90
15596;DHT22;7898;48.658;9.068;2022-11-21T10:48:59;10.60;99.90
15596;DHT22;7898;48.658;9.068;2022-11-21T10:51:43;10.70;99.90
15596;DHT22;7898;48.658;9.068;2022-11-21T10:54:18;10.80;99.90
15596;DHT22;7898;48.658;9.068;2022-11-21T10:57:10;11.00;99.90
15596;DHT22;7898;48.658;9.068;2022-11-21T10:59:40;11.00;99.90
15596;DHT22;7898;48.658;9.068;2022-11-21T11:02:22;11.10;99.90
15596;DHT22;7898;48.658;9.068;2022-11-21T11:05:17;10.80;99.90
15596;DHT22;7898;48.658;9.068;2022-11-21T11:07:58;10.70;99.90
15596;DHT22;7898;48.658;9.068;2022-11-21T11:10:27;10.80;99.90
15596;DHT22;7898;48.658;9.068;2022-11-21T11:13:14;10.70;99.90
15596;DHT22;7898;48.658;9.068;2022-11-21T11:16:17;10.40;99.90
15596;DHT22;7898;48.658;9.068;2022-11-21T11:18:59;10.20;99.90
15596;DHT22;7898;48.658;9.068;2022-11-21T11:21:42;10.30;99.90
15596;DHT22;7898;48.658;9.068;2022-11-21T11:24:20;10.40;99.90
15596;DHT22;7898;48.658;9.068;2022-11-21T11:26:51;10.20;99.90
15596;DHT22;7898;48.658;9.068;2022-11-21T11:29:24;9.80;99.90
15596;DHT22;7898;48.658;9.068;2022-11-21T11:32:13;9.70;99.90
15596;DHT22;7898;48.658;9.068;2022-11-21T11:34:54;9.60;99.90
15596;DHT22;7898;48.658;9.068;2022-11-21T11:37:35;9.70;99.90
15596;DHT22;7898;48.658;9.068;2022-11-21T11:40:18;9.90;99.90
15596;DHT22;7898;48.658;9.068;2022-11-21T11:43:06;10.10;99.90
15596;DHT22;7898;48.658;9.068;2022-11-21T11:46:13;10.10;99.90
15596;DHT22;7898;48.658;9.068;2022-11-21T11:49:03;10.20;99.90
15596;DHT22;7898;48.658;9.068;2022-11-21T11:51:43;10.00;99.90
15596;DHT22;7898;48.658;9.068;2022-11-21T11:54:27;9.80;99.90
15596;DHT22;7898;48.658;9.068;2022-11-21T11:57:11;9.60;99.90
15596;DHT22;7898;48.658;9.068;2022-11-21T11:59:44;9.40;99.90
15596;DHT22;7898;48.658;9.068;2022-11-21T12:02:32;9.10;99.90
15596;DHT22;7898;48.658;9.068;2022-11-21T12:05:16;9.00;99.90
15596;DHT22;7898;48.658;9.068;2022-11-21T12:07:53;8.80;99.90
15596;DHT22;7898;48.658;9.068;2022-11-21T12:10:42;8.70;99.90
15596;DHT22;7898;48.658;9.068;2022-11-21T12:13:30;9.10;99.90
15596;DHT22;7898;48.658;9.068;2022-11-21T12:16:04;9.30;99.90
15596;DHT22;7898;48.658;9.068;2022-11-21T12:18:51;9.60;99.90
15596;DHT22;7898;48.658;9.068;2022-11-21T12:21:25;10.20;99.90
15596;DHT22;7898;48.658;9.068;2022-11-21T12:24:02;10.50;99.90
15596;DHT22;7898;48.658;9.068;2022-11-21T12:26:54;10.80;99.90
15596;DHT22;7898;48.658;9.068;2022-11-21T12:29:31;10.80;99.90
15596;DHT22;7898;48.658;9.068;2022-11-21T12:32:28;10.50;99.90
15596;DHT22;7898;48.658;9.068;2022-11-21T12:35:20;10.50;99.90
15596;DHT22;7898;48.658;9.068;2022-11-21T12:38:04;10.50;99.90
15596;DHT22;7898;48.658;9.068;2022-11-21T12:40:45;10.60;99.90
15596;DHT22;7898;48.658;9.068;2022-11-21T12:43:34;10.30;99.90
15596;DHT22;7898;48.658;9.068;2022-11-21T12:46:24;10.20;99.90
15596;DHT22;7898;48.658;9.068;2022-11-21T12:49:00;10.10;99.90
15596;DHT22;7898;48.658;9.068;2022-11-21T12:51:59;10.10;99.90
15596;DHT22;7898;48.658;9.068;2022-11-21T12:55:08;10.20;99.90
15596;DHT22;7898;48.658;9.068;2022-11-21T13:01:15;10.20;99.90
15596;DHT22;7898;48.658;9.068;2022-11-21T13:03:57;10.50;99.90
15596;DHT22;7898;48.658;9.068;2022-11-21T13:06:28;10.60;99.90
15596;DHT22;7898;48.658;9.068;2022-11-21T13:09:06;10.70;99.90
15596;DHT22;7898;48.658;9.068;2022-11-21T13:11:44;10.70;99.90
15596;DHT22;7898;48.658;9.068;2022-11-21T13:14:34;10.50;99.90
15596;DHT22;7898;48.658;9.068;2022-11-21T13:17:19;10.30;99.90
15596;DHT22;7898;48.658;9.068;2022-11-21T13:20:01;10.30;99.90
15596;DHT22;7898;48.658;9.068;2022-11-21T13:22:51;10.40;99.90
15596;DHT22;7898;48.658;9.068;2022-11-21T13:25:49;10.40;99.90
15596;DHT22;7898;48.658;9.068;2022-11-21T13:28:35;10.60;99.90
15596;DHT22;7898;48.658;9.068;2022-11-21T13:31:25;10.80;99.90
15596;DHT22;7898;48.658;9.068;2022-11-21T13:33:58;11.00;99.90
15596;DHT22;7898;48.658;9.068;2022-11-21T13:36:39;10.80;99.90
15596;DHT22;7898;48.658;9.068;2022-11-21T13:39:33;10.40;99.90
15596;DHT22;7898;48.658;9.068;2022-11-21T13:42:11;10.00;99.90
15596;DHT22;7898;48.658;9.068;2022-11-21T13:44:57;9.60;99.90
15596;DHT22;7898;48.658;9.068;2022-11-21T13:47:55;9.30;99.90
15596;DHT22;7898;48.658;9.068;2022-11-21T13:54:18;9.00;99.90
15596;DHT22;7898;48.658;9.068;2022-11-21T13:57:08;9.00;99.90
15596;DHT22;7898;48.658;9.068;2022-11-21T14:09:23;9.00;99.90
15596;DHT22;7898;48.658;9.068;2022-11-21T14:12:19;9.10;99.90
15596;DHT22;7898;48.658;9.068;2022-11-21T14:15:14;9.00;99.90
15596;DHT22;7898;48.658;9.068;2022-11-21T14:17:47;9.00;99.90
15596;DHT22;7898;48.658;9.068;2022-11-21T14:20:23;9.00;99.90
15596;DHT22;7898;48.658;9.068;2022-11-21T14:23:13;8.90;99.90
15596;DHT22;7898;48.658;9.068;2022-11-21T14:25:55;8.80;99.90
15596;DHT22;7898;48.658;9.068;2022-11-21T14:28:35;8.80;99.90
15596;DHT22;7898;48.658;9.068;2022-11-21T14:31:20;8.70;99.90
15596;DHT22;7898;48.658;9.068;2022-11-21T14:34:02;8.70;99.90
15596;DHT22;7898;48.658;9.068;2022-11-21T14:36:29;8.60;99.90
15596;DHT22;7898;48.658;9.068;2022-11-21T14:39:07;8.60;99.90
15596;DHT22;7898;48.658;9.068;2022-11-21T14:41:39;8.60;99.90
15596;DHT22;7898;48.658;9.068;2022-11-21T14:44:18;8.70;99.90
15596;DHT22;7898;48.658;9.068;2022-11-21T14:46:46;8.40;99.90
15596;DHT22;7898;48.658;9.068;2022-11-21T14:49:22;8.30;99.90
15596;DHT22;7898;48.658;9.068;2022-11-21T14:52:01;8.30;99.90
15596;DHT22;7898;48.658;9.068;2022-11-21T14:54:38;8.20;99.90
15596;DHT22;7898;48.658;9.068;2022-11-21T14:57:19;8.00;99.90
15596;DHT22;7898;48.658;9.068;2022-11-21T14:59:47;7.90;99.90
15596;DHT22;7898;48.658;9.068;2022-11-21T15:02:29;7.80;99.90
15596;DHT22;7898;48.658;9.068;2022-11-21T15:05:14;7.60;99.90
15596;DHT22;7898;48.658;9.068;2022-11-21T15:07:45;7.50;99.90
15596;DHT22;7898;48.658;9.068;2022-11-21T15:10:23;7.30;99.90
15596;DHT22;7898;48.658;9.068;2022-11-21T15:12:58;7.30;99.90
15596;DHT22;7898;48.658;9.068;2022-11-21T15:15:29;7.10;99.90
15596;DHT22;7898;48.658;9.068;2022-11-21T15:18:14;7.00;99.90
15596;DHT22;7898;48.658;9.068;2022-11-21T15:20:47;6.90;99.90
15596;DHT22;7898;48.658;9.068;2022-11-21T15:23:25;6.80;99.90
15596;DHT22;7898;48.658;9.068;2022-11-21T15:25:58;6.70;99.90
15596;DHT22;7898;48.658;9.068;2022-11-21T15:28:36;6.60;99.90
15596;DHT22;7898;48.658;9.068;2022-11-21T15:31:16;6.40;99.90
15596;DHT22;7898;48.658;9.068;2022-11-21T15:34:03;6.30;99.90
15596;DHT22;7898;48.658;9.068;2022-11-21T15:36:38;6.20;99.90
15596;DHT22;7898;48.658;9.068;2022-11-21T15:39:13;6.10;99.90
15596;DHT22;7898;48.658;9.068;2022-11-21T15:41:48;5.90;99.90
15596;DHT22;7898;48.658;9.068;2022-11-21T15:44:26;5.80;99.90
15596;DHT22;7898;48.658;9.068;2022-11-21T15:46:55;5.70;99.90
15596;DHT22;7898;48.658;9.068;2022-11-21T15:49:29;5.60;99.90
15596;DHT22;7898;48.658;9.068;2022-11-21T15:52:11;5.60;99.90
15596;DHT22;7898;48.658;9.068;2022-11-21T15:54:52;5.50;99.90
15596;DHT22;7898;48.658;9.068;2022-11-21T15:57:25;5.50;99.90
15596;DHT22;7898;48.658;9.068;2022-11-21T15:59:53;5.40;99.90
15596;DHT22;7898;48.658;9.068;2022-11-21T16:02:25;5.30;99.90
15596;DHT22;7898;48.658;9.068;2022-11-21T16:04:56;5.20;99.90
15596;DHT22;7898;48.658;9.068;2022-11-21T16:07:34;5.00;99.90
15596;DHT22;7898;48.658;9.068;2022-11-21T16:10:05;5.00;99.90
15596;DHT22;7898;48.658;9.068;2022-11-21T16:12:52;4.80;99.90
15596;DHT22;7898;48.658;9.068;2022-11-21T16:15:22;4.70;99.90
15596;DHT22;7898;48.658;9.068;2022-11-21T16:18:03;4.70;99.90
15596;DHT22;7898;48.658;9.068;2022-11-21T16:20:33;4.60;99.90
15596;DHT22;7898;48.658;9.068;2022-11-21T16:23:01;4.50;99.90
15596;DHT22;7898;48.658;9.068;2022-11-21T16:25:30;4.40;99.90
15596;DHT22;7898;48.658;9.068;2022-11-21T16:28:03;4.40;99.90
15596;DHT22;7898;48.658;9.068;2022-11-21T16:30:30;4.20;99.90
15596;DHT22;7898;48.658;9.068;2022-11-21T16:33:03;4.20;99.90
15596;DHT22;7898;48.658;9.068;2022-11-21T16:35:30;4.10;99.90
15596;DHT22;7898;48.658;9.068;2022-11-21T16:37:57;4.00;99.90
15596;DHT22;7898;48.658;9.068;2022-11-21T16:40:52;4.10;99.90
15596;DHT22;7898;48.658;9.068;2022-11-21T16:43:31;4.00;99.90
15596;DHT22;7898;48.658;9.068;2022-11-21T16:46:11;4.00;99.90
15596;DHT22;7898;48.658;9.068;2022-11-21T16:49:05;4.10;99.90
15596;DHT22;7898;48.658;9.068;2022-11-21T16:51:42;4.10;99.90
15596;DHT22;7898;48.658;9.068;2022-11-21T16:54:20;4.10;99.90
15596;DHT22;7898;48.658;9.068;2022-11-21T16:57:02;4.70;99.90
15596;DHT22;7898;48.658;9.068;2022-11-21T16:59:35;4.10;99.90
15596;DHT22;7898;48.658;9.068;2022-11-21T17:05:03;4.00;99.90
15596;DHT22;7898;48.658;9.068;2022-11-21T17:07:33;3.80;99.90
15596;DHT22;7898;48.658;9.068;2022-11-21T17:11:02;3.70;99.90
15596;DHT22;7898;48.658;9.068;2022-11-21T17:13:40;3.60;99.90
15596;DHT22;7898;48.658;9.068;2022-11-21T17:16:25;3.50;99.90
15596;DHT22;7898;48.658;9.068;2022-11-21T17:19:03;3.50;99.90